KLM320X ENBR-EHAM
Flight info
| Callsign | KLM320X |
|---|---|
| Flight time | N/A |
| Altitude | 34000 |
| Route | TUXIL DCT ZOL DCT ATNAK DCT TIPAN DCT WECOW DCT LARDI DCT TOPPA |
| Aircraft | A333/H-SDE3GHIJ2J3J5M1RVWXY/LB2D1 |
Departure
| Time | 2026-04-30 13:41 |
|---|---|
| Airport | Bergen Airport, Flesland (ENBR) |
Arrival
| Time | N/A |
|---|---|
| Airport | Amsterdam Airport Schiphol (EHAM) |
| Time | Latitude | Longitude | Altitude | Speed | Heading |
|---|---|---|---|---|---|
| 2026-04-30 13:07 | 60.28893 | 5.22517 | 155 ft | 0 kts | 102° |
| 2026-04-30 13:29 | 60.28892 | 5.22476 | 154 ft | 3 kts | 54° |
| 2026-04-30 13:29 | 60.28865 | 5.22421 | 154 ft | 3 kts | 24° |
| 2026-04-30 13:30 | 60.28835 | 5.22416 | 154 ft | 0 kts | 354° |
| 2026-04-30 13:34 | 60.28836 | 5.22416 | 154 ft | 1 kts | 354° |
| 2026-04-30 13:34 | 60.28986 | 5.22377 | 155 ft | 10 kts | 351° |
| 2026-04-30 13:35 | 60.29057 | 5.22343 | 155 ft | 11 kts | 329° |
| 2026-04-30 13:35 | 60.29190 | 5.22191 | 157 ft | 13 kts | 351° |
| 2026-04-30 13:36 | 60.29401 | 5.22118 | 159 ft | 17 kts | 350° |
| 2026-04-30 13:36 | 60.29518 | 5.22080 | 160 ft | 18 kts | 351° |
| 2026-04-30 13:36 | 60.29771 | 5.21992 | 162 ft | 19 kts | 350° |
| 2026-04-30 13:37 | 60.29908 | 5.21948 | 163 ft | 20 kts | 351° |
| 2026-04-30 13:37 | 60.30195 | 5.21850 | 165 ft | 22 kts | 351° |
| 2026-04-30 13:38 | 60.30482 | 5.21754 | 168 ft | 19 kts | 351° |
| 2026-04-30 13:38 | 60.30610 | 5.21709 | 169 ft | 17 kts | 344° |
| 2026-04-30 13:38 | 60.30652 | 5.21462 | 171 ft | 8 kts | 256° |
| 2026-04-30 13:39 | 60.30580 | 5.21402 | 170 ft | 0 kts | 173° |
| 2026-04-30 13:40 | 60.30508 | 5.21422 | 167 ft | 39 kts | 171° |
| 2026-04-30 13:40 | 60.30006 | 5.21597 | 166 ft | 106 kts | 171° |
| 2026-04-30 13:40 | 60.29105 | 5.21891 | 313 ft | 147 kts | 172° |
| 2026-04-30 13:41 | 60.28058 | 5.22194 | 988 ft | 156 kts | 173° |
| 2026-04-30 13:41 | 60.26958 | 5.22455 | 1761 ft | 163 kts | 175° |
| 2026-04-30 13:41 | 60.25818 | 5.22790 | 2291 ft | 178 kts | 171° |
| 2026-04-30 13:41 | 60.24478 | 5.23299 | 2577 ft | 208 kts | 170° |
| 2026-04-30 13:42 | 60.22959 | 5.23867 | 2953 ft | 234 kts | 171° |
| 2026-04-30 13:42 | 60.21308 | 5.24457 | 3667 ft | 245 kts | 171° |
| 2026-04-30 13:42 | 60.17889 | 5.25630 | 5497 ft | 253 kts | 173° |
| 2026-04-30 13:43 | 60.16137 | 5.26220 | 6428 ft | 257 kts | 174° |
| 2026-04-30 13:43 | 60.14356 | 5.26814 | 7342 ft | 262 kts | 174° |
| 2026-04-30 13:43 | 60.12546 | 5.27417 | 8275 ft | 265 kts | 174° |
| 2026-04-30 13:43 | 60.10715 | 5.28026 | 9250 ft | 268 kts | 174° |
| 2026-04-30 13:44 | 60.08861 | 5.28595 | 10236 ft | 270 kts | 175° |
| 2026-04-30 13:44 | 60.07008 | 5.29107 | 10949 ft | 280 kts | 176° |
| 2026-04-30 13:44 | 60.04993 | 5.29642 | 11324 ft | 302 kts | 175° |
| 2026-04-30 13:44 | 60.02865 | 5.30208 | 11908 ft | 314 kts | 175° |
| 2026-04-30 13:45 | 59.98414 | 5.31403 | 13386 ft | 327 kts | 175° |
| 2026-04-30 13:45 | 59.96182 | 5.32002 | 14209 ft | 330 kts | 175° |
| 2026-04-30 13:45 | 59.93897 | 5.32613 | 14963 ft | 333 kts | 175° |
| 2026-04-30 13:46 | 59.91587 | 5.33228 | 15650 ft | 338 kts | 175° |
| 2026-04-30 13:46 | 59.89243 | 5.33851 | 16335 ft | 342 kts | 176° |
| 2026-04-30 13:46 | 59.86862 | 5.34483 | 17029 ft | 347 kts | 176° |
| 2026-04-30 13:46 | 59.84458 | 5.35121 | 17708 ft | 351 kts | 176° |
| 2026-04-30 13:47 | 59.82021 | 5.35766 | 18384 ft | 355 kts | 176° |
| 2026-04-30 13:47 | 59.79556 | 5.36354 | 19015 ft | 359 kts | 178° |
| 2026-04-30 13:47 | 59.77059 | 5.36801 | 19558 ft | 363 kts | 178° |
| 2026-04-30 13:47 | 59.74527 | 5.37218 | 20084 ft | 367 kts | 178° |
| 2026-04-30 13:48 | 59.71966 | 5.37636 | 20623 ft | 371 kts | 178° |
| 2026-04-30 13:48 | 59.69391 | 5.38059 | 21276 ft | 371 kts | 178° |
| 2026-04-30 13:48 | 59.66806 | 5.38483 | 21869 ft | 374 kts | 178° |
| 2026-04-30 13:48 | 59.64209 | 5.38969 | 22422 ft | 378 kts | 176° |
| 2026-04-30 13:49 | 59.61580 | 5.39605 | 22944 ft | 382 kts | 176° |
| 2026-04-30 13:49 | 59.58932 | 5.40281 | 23446 ft | 386 kts | 176° |
| 2026-04-30 13:49 | 59.56258 | 5.40965 | 23981 ft | 389 kts | 176° |
| 2026-04-30 13:49 | 59.54475 | 5.41420 | 24264 ft | 392 kts | 176° |
| 2026-04-30 13:50 | 59.51766 | 5.42108 | 24687 ft | 395 kts | 176° |
| 2026-04-30 13:50 | 59.46266 | 5.43497 | 25538 ft | 401 kts | 175° |
| 2026-04-30 13:50 | 59.43494 | 5.44196 | 25977 ft | 404 kts | 175° |
| 2026-04-30 13:51 | 59.40694 | 5.44909 | 26372 ft | 407 kts | 174° |
| 2026-04-30 13:51 | 59.37887 | 5.45764 | 26781 ft | 410 kts | 173° |
| 2026-04-30 13:51 | 59.35062 | 5.46755 | 27181 ft | 413 kts | 172° |
| 2026-04-30 13:51 | 59.32228 | 5.47811 | 27574 ft | 416 kts | 172° |
| 2026-04-30 13:52 | 59.29372 | 5.48893 | 27962 ft | 419 kts | 172° |
| 2026-04-30 13:52 | 59.26498 | 5.49977 | 28348 ft | 422 kts | 172° |
| 2026-04-30 13:52 | 59.23609 | 5.51051 | 28724 ft | 425 kts | 172° |
| 2026-04-30 13:52 | 59.20690 | 5.52124 | 29116 ft | 427 kts | 172° |
| 2026-04-30 13:53 | 59.17761 | 5.53189 | 29423 ft | 430 kts | 172° |
| 2026-04-30 13:53 | 59.14814 | 5.54253 | 29488 ft | 431 kts | 172° |
| 2026-04-30 13:53 | 59.08912 | 5.56377 | 29499 ft | 431 kts | 172° |
| 2026-04-30 13:54 | 59.03002 | 5.58494 | 29501 ft | 432 kts | 172° |
| 2026-04-30 13:54 | 58.97113 | 5.60598 | 29488 ft | 426 kts | 172° |
| 2026-04-30 13:55 | 58.91357 | 5.62641 | 29507 ft | 418 kts | 173° |
| 2026-04-30 13:55 | 58.85601 | 5.63096 | 29509 ft | 413 kts | 188° |
| 2026-04-30 13:56 | 58.79919 | 5.61460 | 29487 ft | 413 kts | 192° |
| 2026-04-30 13:56 | 58.74279 | 5.59392 | 29520 ft | 412 kts | 193° |
| 2026-04-30 13:57 | 58.71459 | 5.58336 | 29763 ft | 414 kts | 193° |
| 2026-04-30 13:57 | 58.68619 | 5.57284 | 30150 ft | 417 kts | 192° |
| 2026-04-30 13:57 | 58.65761 | 5.56243 | 30536 ft | 419 kts | 192° |
| 2026-04-30 13:57 | 58.62885 | 5.55208 | 30850 ft | 422 kts | 192° |
| 2026-04-30 13:58 | 58.59990 | 5.54177 | 31172 ft | 424 kts | 192° |
| 2026-04-30 13:58 | 58.54165 | 5.52119 | 31831 ft | 428 kts | 192° |
| 2026-04-30 13:58 | 58.51230 | 5.51086 | 32135 ft | 430 kts | 192° |
| 2026-04-30 13:59 | 58.48282 | 5.50049 | 32439 ft | 432 kts | 192° |
| 2026-04-30 13:59 | 58.45362 | 5.49023 | 32736 ft | 434 kts | 192° |
| 2026-04-30 13:59 | 58.42386 | 5.47979 | 33030 ft | 436 kts | 192° |
| 2026-04-30 13:59 | 58.39397 | 5.46932 | 33329 ft | 438 kts | 192° |
| 2026-04-30 14:00 | 58.36398 | 5.45882 | 33605 ft | 439 kts | 192° |
| 2026-04-30 14:00 | 58.30353 | 5.43773 | 34118 ft | 444 kts | 192° |
| 2026-04-30 14:00 | 58.27306 | 5.42712 | 34393 ft | 446 kts | 192° |
| 2026-04-30 14:01 | 58.21183 | 5.40588 | 34491 ft | 448 kts | 192° |
| 2026-04-30 14:01 | 58.15058 | 5.38471 | 34490 ft | 447 kts | 192° |
| 2026-04-30 14:02 | 58.08935 | 5.36361 | 34489 ft | 447 kts | 192° |
| 2026-04-30 14:02 | 58.02808 | 5.34256 | 34494 ft | 448 kts | 192° |
| 2026-04-30 14:03 | 57.96661 | 5.32152 | 34493 ft | 449 kts | 192° |
| 2026-04-30 14:03 | 57.90517 | 5.30056 | 34492 ft | 449 kts | 192° |
| 2026-04-30 14:04 | 57.84449 | 5.27996 | 34491 ft | 437 kts | 192° |
| 2026-04-30 14:04 | 57.78491 | 5.25978 | 34489 ft | 434 kts | 191° |
| 2026-04-30 14:05 | 57.72540 | 5.23967 | 34487 ft | 435 kts | 191° |
| 2026-04-30 14:05 | 57.66582 | 5.21961 | 34488 ft | 435 kts | 191° |
| 2026-04-30 14:06 | 57.57683 | 5.18978 | 34492 ft | 435 kts | 191° |
| 2026-04-30 14:07 | 57.48741 | 5.15997 | 34493 ft | 436 kts | 191° |
| 2026-04-30 14:08 | 57.39786 | 5.13026 | 34501 ft | 436 kts | 191° |
| 2026-04-30 14:08 | 57.30827 | 5.10068 | 34485 ft | 436 kts | 191° |
| 2026-04-30 14:09 | 57.24818 | 5.08092 | 34494 ft | 436 kts | 191° |
| 2026-04-30 14:10 | 57.15900 | 5.05171 | 34495 ft | 436 kts | 191° |
| 2026-04-30 14:10 | 57.09921 | 5.03222 | 34488 ft | 436 kts | 191° |
| 2026-04-30 14:11 | 57.03949 | 5.01280 | 34489 ft | 436 kts | 191° |
| 2026-04-30 14:11 | 56.97972 | 4.99409 | 34496 ft | 436 kts | 189° |
| 2026-04-30 14:12 | 56.91973 | 4.97794 | 34493 ft | 436 kts | 189° |
| 2026-04-30 14:12 | 56.86002 | 4.96035 | 34490 ft | 433 kts | 189° |
| 2026-04-30 14:13 | 56.80032 | 4.94551 | 34494 ft | 437 kts | 188° |
| 2026-04-30 14:13 | 56.74092 | 4.93107 | 34476 ft | 424 kts | 188° |
| 2026-04-30 14:14 | 56.68275 | 4.91625 | 34491 ft | 421 kts | 189° |
| 2026-04-30 14:14 | 56.62481 | 4.90113 | 34487 ft | 421 kts | 189° |
| 2026-04-30 14:15 | 56.56679 | 4.88595 | 34490 ft | 421 kts | 189° |
| 2026-04-30 14:15 | 56.50880 | 4.87085 | 34481 ft | 421 kts | 189° |
| 2026-04-30 14:16 | 56.45080 | 4.85581 | 34481 ft | 421 kts | 188° |
| 2026-04-30 14:16 | 56.39280 | 4.84084 | 34486 ft | 420 kts | 188° |
| 2026-04-30 14:17 | 56.33548 | 4.82609 | 34487 ft | 414 kts | 188° |
| 2026-04-30 14:17 | 56.27894 | 4.81157 | 34474 ft | 407 kts | 188° |
| 2026-04-30 14:18 | 56.22294 | 4.79724 | 34476 ft | 408 kts | 188° |
| 2026-04-30 14:18 | 56.13748 | 4.77543 | 34479 ft | 421 kts | 188° |
| 2026-04-30 14:19 | 56.07848 | 4.76043 | 34472 ft | 432 kts | 188° |
| 2026-04-30 14:19 | 56.04865 | 4.75287 | 34476 ft | 433 kts | 188° |
| 2026-04-30 14:20 | 55.98904 | 4.73781 | 34471 ft | 432 kts | 188° |
| 2026-04-30 14:20 | 55.90011 | 4.71541 | 34465 ft | 432 kts | 188° |
| 2026-04-30 14:21 | 55.84056 | 4.70047 | 34476 ft | 432 kts | 188° |
| 2026-04-30 14:22 | 55.75126 | 4.67815 | 34473 ft | 432 kts | 188° |
| 2026-04-30 14:22 | 55.66194 | 4.65593 | 34469 ft | 432 kts | 188° |
| 2026-04-30 14:23 | 55.54253 | 4.62638 | 34470 ft | 433 kts | 188° |
| 2026-04-30 14:24 | 55.45298 | 4.60434 | 34459 ft | 433 kts | 188° |
| 2026-04-30 14:25 | 55.33345 | 4.57508 | 34464 ft | 434 kts | 188° |
| 2026-04-30 14:26 | 55.24375 | 4.55323 | 34460 ft | 434 kts | 188° |
| 2026-04-30 14:27 | 55.15398 | 4.53147 | 34451 ft | 434 kts | 188° |
| 2026-04-30 14:27 | 55.09405 | 4.51699 | 34457 ft | 435 kts | 188° |
| 2026-04-30 14:28 | 55.00392 | 4.49531 | 34453 ft | 441 kts | 188° |
| 2026-04-30 14:28 | 54.94242 | 4.48057 | 34446 ft | 454 kts | 188° |
| 2026-04-30 14:29 | 54.88079 | 4.46585 | 34442 ft | 434 kts | 188° |
| 2026-04-30 14:29 | 54.83131 | 4.45407 | 34447 ft | 426 kts | 188° |
| 2026-04-30 14:31 | 54.67590 | 4.41723 | 34441 ft | 418 kts | 188° |
| 2026-04-30 14:31 | 54.59057 | 4.38806 | 34435 ft | 417 kts | 202° |
| 2026-04-30 14:32 | 54.51241 | 4.32232 | 34434 ft | 417 kts | 208° |
| 2026-04-30 14:33 | 54.46127 | 4.27509 | 34421 ft | 417 kts | 208° |
| 2026-04-30 14:33 | 54.38529 | 4.20557 | 34421 ft | 413 kts | 207° |
| 2026-04-30 14:34 | 54.33442 | 4.15967 | 34417 ft | 413 kts | 207° |
| 2026-04-30 14:34 | 54.28345 | 4.11391 | 34419 ft | 413 kts | 207° |
| 2026-04-30 14:35 | 54.20705 | 4.04555 | 34414 ft | 413 kts | 207° |
| 2026-04-30 14:36 | 54.15610 | 4.00008 | 34403 ft | 414 kts | 206° |
| 2026-04-30 14:36 | 54.11336 | 3.96205 | 34341 ft | 414 kts | 206° |
| 2026-04-30 14:36 | 54.08786 | 3.93939 | 34084 ft | 413 kts | 206° |
| 2026-04-30 14:37 | 54.06244 | 3.91684 | 33799 ft | 411 kts | 206° |
| 2026-04-30 14:37 | 54.03718 | 3.89446 | 33539 ft | 408 kts | 206° |
| 2026-04-30 14:37 | 54.01205 | 3.87222 | 33257 ft | 406 kts | 206° |
| 2026-04-30 14:37 | 53.98703 | 3.85011 | 32988 ft | 404 kts | 206° |
| 2026-04-30 14:38 | 53.96246 | 3.82844 | 32725 ft | 402 kts | 206° |
| 2026-04-30 14:38 | 53.93768 | 3.80661 | 32461 ft | 400 kts | 206° |
| 2026-04-30 14:38 | 53.91305 | 3.78494 | 32195 ft | 398 kts | 206° |
| 2026-04-30 14:38 | 53.88851 | 3.76338 | 31933 ft | 396 kts | 206° |
| 2026-04-30 14:39 | 53.86412 | 3.74198 | 31705 ft | 394 kts | 206° |
| 2026-04-30 14:39 | 53.83980 | 3.72067 | 31448 ft | 392 kts | 205° |
| 2026-04-30 14:39 | 53.81565 | 3.69953 | 31191 ft | 390 kts | 205° |
| 2026-04-30 14:40 | 53.76761 | 3.65758 | 30700 ft | 387 kts | 205° |
| 2026-04-30 14:40 | 53.74376 | 3.63678 | 30457 ft | 384 kts | 205° |
| 2026-04-30 14:40 | 53.72016 | 3.61622 | 30175 ft | 379 kts | 205° |
| 2026-04-30 14:40 | 53.69679 | 3.59589 | 29891 ft | 377 kts | 205° |
| 2026-04-30 14:41 | 53.67350 | 3.57567 | 29623 ft | 376 kts | 205° |
| 2026-04-30 14:41 | 53.65030 | 3.55555 | 29340 ft | 374 kts | 205° |
| 2026-04-30 14:41 | 53.62651 | 3.53812 | 29067 ft | 371 kts | 197° |
| 2026-04-30 14:41 | 53.60163 | 3.52729 | 28801 ft | 368 kts | 186° |
| 2026-04-30 14:42 | 53.57628 | 3.52408 | 28427 ft | 364 kts | 176° |
| 2026-04-30 14:42 | 53.55121 | 3.52737 | 28014 ft | 360 kts | 169° |
| 2026-04-30 14:42 | 53.52682 | 3.53538 | 27685 ft | 356 kts | 165° |
| 2026-04-30 14:42 | 53.50278 | 3.54483 | 27431 ft | 354 kts | 165° |
| 2026-04-30 14:43 | 53.47890 | 3.55480 | 27168 ft | 353 kts | 164° |
| 2026-04-30 14:43 | 53.45516 | 3.56499 | 26913 ft | 353 kts | 164° |
| 2026-04-30 14:43 | 53.43068 | 3.57568 | 26673 ft | 375 kts | 163° |
| 2026-04-30 14:43 | 53.40493 | 3.58700 | 26402 ft | 385 kts | 163° |
| 2026-04-30 14:44 | 53.37905 | 3.59837 | 25971 ft | 383 kts | 163° |
| 2026-04-30 14:44 | 53.35335 | 3.60966 | 25476 ft | 382 kts | 163° |
| 2026-04-30 14:44 | 53.32772 | 3.62092 | 24974 ft | 381 kts | 163° |
| 2026-04-30 14:44 | 53.30212 | 3.63217 | 24491 ft | 379 kts | 163° |
| 2026-04-30 14:45 | 53.27665 | 3.64335 | 24005 ft | 378 kts | 163° |
| 2026-04-30 14:45 | 53.25125 | 3.65449 | 23453 ft | 377 kts | 163° |
| 2026-04-30 14:45 | 53.22595 | 3.66558 | 22947 ft | 373 kts | 163° |
| 2026-04-30 14:45 | 53.20097 | 3.67650 | 22468 ft | 370 kts | 163° |
| 2026-04-30 14:46 | 53.17611 | 3.68737 | 21964 ft | 367 kts | 163° |
| 2026-04-30 14:46 | 53.15145 | 3.69814 | 21481 ft | 365 kts | 162° |
| 2026-04-30 14:46 | 53.12699 | 3.70881 | 21010 ft | 362 kts | 162° |
| 2026-04-30 14:46 | 53.10267 | 3.71941 | 20433 ft | 362 kts | 162° |
| 2026-04-30 14:47 | 53.07832 | 3.73001 | 19908 ft | 360 kts | 162° |
| 2026-04-30 14:47 | 53.05424 | 3.74047 | 19507 ft | 355 kts | 162° |
| 2026-04-30 14:47 | 53.03050 | 3.75076 | 19074 ft | 352 kts | 162° |
| 2026-04-30 14:47 | 53.00687 | 3.76101 | 18665 ft | 349 kts | 162° |
| 2026-04-30 14:48 | 52.98339 | 3.77119 | 18120 ft | 351 kts | 162° |
| 2026-04-30 14:48 | 52.95954 | 3.78154 | 17206 ft | 358 kts | 162° |
| 2026-04-30 14:48 | 52.93530 | 3.79204 | 16403 ft | 362 kts | 162° |
| 2026-04-30 14:48 | 52.91085 | 3.80259 | 15728 ft | 361 kts | 162° |
| 2026-04-30 14:49 | 52.88667 | 3.81300 | 15110 ft | 358 kts | 162° |
| 2026-04-30 14:49 | 52.86267 | 3.82332 | 14529 ft | 354 kts | 162° |
| 2026-04-30 14:49 | 52.83892 | 3.83352 | 13989 ft | 350 kts | 162° |
| 2026-04-30 14:49 | 52.81563 | 3.84352 | 13467 ft | 344 kts | 162° |
| 2026-04-30 14:50 | 52.77024 | 3.86297 | 12543 ft | 330 kts | 162° |
| 2026-04-30 14:50 | 52.74817 | 3.87242 | 12061 ft | 325 kts | 162° |
| 2026-04-30 14:51 | 52.70562 | 3.89060 | 11538 ft | 302 kts | 162° |
| 2026-04-30 14:51 | 52.68574 | 3.89905 | 11453 ft | 287 kts | 161° |
| 2026-04-30 14:51 | 52.65167 | 3.92666 | 10941 ft | 269 kts | 143° |
| 2026-04-30 14:52 | 52.63639 | 3.94434 | 10564 ft | 268 kts | 142° |
| 2026-04-30 14:52 | 52.60631 | 3.97974 | 9792 ft | 264 kts | 142° |
| 2026-04-30 14:52 | 52.59142 | 3.99736 | 9383 ft | 263 kts | 142° |
| 2026-04-30 14:53 | 52.56196 | 4.03220 | 8605 ft | 259 kts | 142° |
| 2026-04-30 14:53 | 52.54739 | 4.04944 | 8219 ft | 257 kts | 142° |
| 2026-04-30 14:54 | 52.51860 | 4.08356 | 7482 ft | 253 kts | 142° |